LWSK Airport Information

Runway Information
Runway 16 Length 9678 ft width 148 ft
Elevation 781 ft Threshold ft Heading 165
Runway 34 Length 9678 ft Width 148 ft
Elevation 768 ft Threshold ft Heading 345
Airport Frequencies
Type APP Name APP Frequency 120.3 MHZ
Type ATIS Name ATIS Frequency 130.125 MHZ
Type TWR Name TWR Frequency 118.5 MHZ
Airport Navaids
Type NDB Name Skopje Frequency 442 KHZ
Type VOR-DME Name Sinko Frequency 111450 KHZ
Type VOR-DME Name Skopje Frequency 112800 KHZ
Airport Weather Information & NOTAM
ADDS - METARS form results

(1328 UTC 26 June 2022)
Data provider http://aviationweather.gov/metar/data/
 
METAR text: LWSK 261300Z 05004KT 360V130 9999 FEW040 31/14 Q1015 NOSIG
Conditions at: LWSK (SKOPJE/PETROVAC , MK) observed 1300 UTC 26 June 2022
Temperature: 31.0°C (88°F)
Dewpoint: 14.0°C (57°F) [RH = 36%]
Pressure (altimeter): 29.97 inches Hg (1015.0 mb)
Winds: from the NE (50 degrees) at 5 MPH (4 knots; 2.1 m/s)
Visibility: 6 or more miles (10+ km)
Ceiling: at least 12,000 feet AGL
Clouds: few clouds at 4000 feet AGL
Weather: no significant weather observed at this time

METAR text: LWSK 261230Z 03007KT 350V050 9999 FEW040 30/15 Q1015 NOSIG
Conditions at: LWSK (SKOPJE/PETROVAC , MK) observed 1230 UTC 26 June 2022
Temperature: 30.0°C (86°F)
Dewpoint: 15.0°C (59°F) [RH = 40%]
Pressure (altimeter): 29.97 inches Hg (1015.0 mb)
Winds: from the NNE (30 degrees) at 8 MPH (7 knots; 3.6 m/s)
Visibility: 6 or more miles (10+ km)
Ceiling: at least 12,000 feet AGL
Clouds: few clouds at 4000 feet AGL
Weather: no significant weather observed at this time

Forecast for: LWSK (SKOPJE/PETROVAC , MK)
Text: TAF LWSK 261150Z 2612/2712 01010KT 9999 FEW045
Forecast period: 1200 UTC 26 June 2022 to 1200 UTC 27 June 2022
Forecast type: FROM: standard forecast or significant change
Winds: from the N (10 degrees) at 12 MPH (10 knots; 5.1 m/s)
Visibility: 6 or more miles (10+ km)
Ceiling: at least 12,000 feet AGL
Clouds: few clouds at 4500 feet AGL
Weather: no significant weather forecast for this period